Time;durP1;ratioP1;P1;durP2;ratioP2;P2;SDS_P1;SDS_P2;PMS_P1;PMS_P2;Temp;Humidity;BMP_temperature;BMP_pressure;BME280_temperature;BME280_humidity;BME280_pressure;Samples;Min_cycle;Max_cycle;Signal;HPM_P1;HPM_P2
2022/04/15 00:01:22;;;;;;;6.40;6.10;;;;;;;4.71;75.00;101212.16;5057453;28;20017;-63
2022/04/15 00:03:48;;;;;;;5.80;5.57;;;;;;;4.69;75.47;101209.63;5066046;28;20097;-64
2022/04/15 00:06:15;;;;;;;5.97;5.68;;;;;;;4.72;74.37;101212.03;5053069;28;20057;-63
2022/04/15 00:08:41;;;;;;;6.40;6.10;;;;;;;4.76;75.05;101211.75;5051332;28;20044;-64
2022/04/15 00:11:06;;;;;;;5.32;5.13;;;;;;;4.75;75.20;101212.72;5055206;28;20021;-64
2022/04/15 00:13:33;;;;;;;5.70;5.50;;;;;;;4.70;75.02;101216.56;5064384;28;20040;-63
2022/04/15 00:16:03;;;;;;;5.72;5.53;;;;;;;4.63;75.51;101217.16;5061288;28;20477;-64
2022/04/15 00:18:29;;;;;;;5.68;5.47;;;;;;;4.69;75.87;101212.25;5048323;28;20044;-63
2022/04/15 00:20:54;;;;;;;6.10;5.80;;;;;;;4.51;76.02;101194.47;5068114;28;20217;-63
2022/04/15 00:23:22;;;;;;;5.43;5.22;;;;;;;4.57;76.71;101210.59;5060097;28;20523;-64
2022/04/15 00:25:48;;;;;;;5.53;5.32;;;;;;;4.43;78.53;101211.66;5051762;28;20028;-63
2022/04/15 00:28:13;;;;;;;5.60;5.40;;;;;;;4.47;77.24;101214.88;5051776;28;20029;-64
2022/04/15 00:30:39;;;;;;;5.75;5.55;;;;;;;4.48;78.59;101202.56;5060282;28;20013;-64
2022/04/15 00:33:04;;;;;;;6.55;6.25;;;;;;;4.37;78.37;101192.91;5049039;28;20087;-64
2022/04/15 00:35:30;;;;;;;6.30;6.00;;;;;;;4.35;78.07;101198.28;5039630;28;20747;-64
2022/04/15 00:37:55;;;;;;;5.85;5.60;;;;;;;4.35;79.21;101194.81;5071359;28;20471;-63
2022/04/15 00:40:21;;;;;;;6.20;5.90;;;;;;;4.32;79.44;101197.66;5062726;28;20028;-64
2022/04/15 00:42:46;;;;;;;5.72;5.53;;;;;;;4.33;79.11;101194.06;5070664;28;20024;-63
2022/04/15 00:45:13;;;;;;;6.22;5.93;;;;;;;4.32;78.08;101187.16;5071652;28;20411;-64
2022/04/15 00:47:55;;;;;;;6.13;5.82;;;;;;;4.35;78.89;101177.25;5048464;28;20017;-63
2022/04/15 00:50:25;;;;;;;5.60;5.40;;;;;;;4.29;78.75;101177.72;5071576;28;20024;-64
2022/04/15 00:52:53;;;;;;;6.95;6.63;;;;;;;4.25;79.23;101164.94;5059998;28;20029;-64
2022/04/15 00:55:21;;;;;;;5.60;5.40;;;;;;;4.29;79.30;101167.22;5051565;28;20519;-64
2022/04/15 00:58:00;;;;;;;6.18;5.88;;;;;;;4.27;78.80;101169.16;5053663;28;20048;-63
2022/04/15 01:00:29;;;;;;;6.03;5.72;;;;;;;4.20;78.92;101161.84;5071093;28;20040;-64
2022/04/15 01:02:59;;;;;;;5.53;5.32;;;;;;;4.20;79.19;101162.69;5055906;28;20097;-63
2022/04/15 01:05:25;;;;;;;5.63;5.43;;;;;;;3.97;81.07;101158.38;5051409;28;20512;-65
2022/04/15 01:07:55;;;;;;;5.70;5.50;;;;;;;3.98;82.07;101160.88;5051454;28;20052;-63
2022/04/15 01:10:21;;;;;;;6.05;5.75;;;;;;;3.83;84.21;101149.75;5051455;28;20047;-63
2022/04/15 01:12:53;;;;;;;5.80;5.60;;;;;;;3.71;87.28;101153.28;5051531;28;20020;-63
2022/04/15 01:15:19;;;;;;;5.70;5.50;;;;;;;3.73;85.91;101148.75;5057255;28;20424;-65
2022/04/15 01:17:45;;;;;;;5.80;5.60;;;;;;;3.76;85.99;101151.16;5040112;28;20021;-64
2022/04/15 01:20:12;;;;;;;5.85;5.63;;;;;;;3.52;90.29;101147.72;5062612;28;20041;-63
2022/04/15 01:22:44;;;;;;;5.93;5.68;;;;;;;3.52;90.51;101151.19;5055137;28;20025;-63
2022/04/15 01:25:15;;;;;;;6.07;5.78;;;;;;;3.56;90.40;101147.38;5072602;28;20095;-63
2022/04/15 01:27:43;;;;;;;6.10;5.80;;;;;;;3.51;89.20;101152.13;5075229;28;20580;-62
2022/04/15 01:30:19;;;;;;;6.00;5.70;;;;;;;3.46;89.55;101146.41;5062215;28;20029;-63
2022/04/15 01:32:46;;;;;;;6.85;6.55;;;;;;;3.50;89.13;101147.84;5058150;28;20025;-64
2022/04/15 01:35:13;;;;;;;5.88;5.65;;;;;;;3.44;89.29;101132.56;5066343;28;20102;-64
2022/04/15 01:37:39;;;;;;;6.07;5.78;;;;;;;3.35;91.21;101135.88;5055187;28;20028;-63
2022/04/15 01:40:08;;;;;;;6.03;5.75;;;;;;;3.31;90.53;101140.50;5066928;28;20476;-62
2022/04/15 01:42:35;;;;;;;5.75;5.55;;;;;;;3.35;90.01;101135.03;5075154;28;20032;-63
2022/04/15 01:45:01;;;;;;;5.68;5.47;;;;;;;3.44;89.61;101137.81;5034107;28;20504;-63
2022/04/15 01:47:27;;;;;;;5.60;5.40;;;;;;;3.36;89.23;101129.66;5040224;28;20032;-63
2022/04/15 01:49:53;;;;;;;5.75;5.55;;;;;;;3.20;92.27;101137.81;5060637;28;20024;-63
2022/04/15 01:52:18;;;;;;;5.60;5.40;;;;;;;3.25;90.30;101129.63;5055718;28;20028;-63
2022/04/15 01:54:45;;;;;;;6.20;5.90;;;;;;;3.23;90.48;101131.50;5058358;28;20020;-63
2022/04/15 01:57:11;;;;;;;6.15;5.85;;;;;;;3.23;91.05;101124.50;5066012;28;20433;-64
2022/04/15 01:59:39;;;;;;;5.80;5.60;;;;;;;3.31;90.19;101131.81;5067493;28;20032;-64
2022/04/15 02:02:06;;;;;;;5.50;5.30;;;;;;;3.24;90.44;101125.34;5046604;28;20477;-63
2022/04/15 02:04:32;;;;;;;6.00;5.70;;;;;;;3.26;90.08;101120.81;5057302;28;20481;-64
2022/04/15 02:06:58;;;;;;;5.63;5.43;;;;;;;3.13;90.56;101109.56;5060448;28;20017;-64
2022/04/15 02:09:24;;;;;;;5.55;5.35;;;;;;;3.12;90.28;101116.59;5054704;28;20108;-63
2022/04/15 02:11:49;;;;;;;6.10;5.80;;;;;;;3.04;90.66;101124.16;5056408;28;20029;-63
2022/04/15 02:14:18;;;;;;;5.80;5.60;;;;;;;3.06;90.15;101117.03;5033452;28;20404;-63
2022/04/15 02:16:45;;;;;;;5.90;5.70;;;;;;;2.94;90.50;101123.19;5034236;28;20022;-63
2022/04/15 02:19:11;;;;;;;5.78;5.57;;;;;;;2.93;90.71;101121.47;5046500;28;20028;-63
2022/04/15 02:21:38;;;;;;;6.00;5.70;;;;;;;2.88;89.93;101113.13;5056053;28;20025;-64
2022/04/15 02:24:03;;;;;;;5.68;5.47;;;;;;;3.04;90.23;101106.66;5062525;28;20103;-63
2022/04/15 02:26:29;;;;;;;5.72;5.53;;;;;;;3.09;89.66;101108.97;5040056;28;20455;-63
2022/04/15 02:28:54;;;;;;;5.95;5.68;;;;;;;2.91;91.38;101105.03;5069903;28;20518;-64
2022/04/15 02:31:20;;;;;;;6.18;5.88;;;;;;;2.97;90.88;101107.22;5073968;28;20031;-63
2022/04/15 02:33:45;;;;;;;6.07;5.78;;;;;;;2.86;90.88;101086.19;5058427;28;20021;-64
2022/04/15 02:36:11;;;;;;;5.75;5.55;;;;;;;3.03;90.51;101107.63;5053705;28;20044;-65
2022/04/15 02:38:37;;;;;;;6.70;6.40;;;;;;;3.05;90.43;101107.50;5050755;28;20033;-63
2022/04/15 02:41:04;;;;;;;6.10;5.80;;;;;;;3.09;89.77;101105.50;5065672;28;20032;-63
2022/04/15 02:43:35;;;;;;;5.75;5.53;;;;;;;3.12;89.66;101102.66;5073645;28;20029;-63
2022/04/15 02:46:03;;;;;;;6.35;6.05;;;;;;;3.05;90.21;101104.88;5073461;28;20040;-64
2022/04/15 02:48:32;;;;;;;5.93;5.68;;;;;;;2.95;89.80;101096.84;5067851;28;20096;-63
2022/04/15 02:50:59;;;;;;;6.35;6.05;;;;;;;3.00;89.86;101099.97;5053500;28;20048;-64
2022/04/15 02:53:25;;;;;;;5.47;5.28;;;;;;;2.88;90.31;101089.56;5053718;28;20055;-64
2022/04/15 02:55:52;;;;;;;5.60;5.40;;;;;;;2.93;89.48;101103.97;5060410;28;20468;-64
2022/04/15 02:58:18;;;;;;;6.30;6.00;;;;;;;2.88;89.44;101103.50;5049749;28;20036;-63
2022/04/15 03:00:43;;;;;;;6.00;5.70;;;;;;;2.88;89.76;101098.25;5054118;28;20025;-63
2022/04/15 03:03:09;;;;;;;5.43;5.22;;;;;;;2.87;89.90;101101.81;5040345;28;20053;-63
2022/04/15 03:05:34;;;;;;;5.70;5.50;;;;;;;2.92;88.88;101104.09;5051171;28;20024;-63
2022/04/15 03:08:00;;;;;;;5.68;5.47;;;;;;;2.81;nan;101098.81;5073160;28;20463;-63
2022/04/15 03:10:25;;;;;;;5.97;5.70;;;;;;;2.73;90.71;101092.34;5073065;28;20031;-64
2022/04/15 03:12:51;;;;;;;5.55;5.35;;;;;;;2.68;92.23;101094.44;5065193;28;20040;-64
2022/04/15 03:15:17;;;;;;;5.47;5.28;;;;;;;2.60;92.21;101096.75;5073126;28;20035;-64
2022/04/15 03:17:43;;;;;;;5.63;5.43;;;;;;;2.67;92.60;101098.00;5062011;28;20028;-64
2022/04/15 03:20:10;;;;;;;6.03;5.72;;;;;;;2.70;91.85;101094.31;5052555;28;20036;-63
2022/04/15 03:22:40;;;;;;;5.90;5.60;;;;;;;2.81;91.44;101093.56;5061061;28;20020;-64
2022/04/15 03:25:08;;;;;;;5.78;5.57;;;;;;;2.85;90.76;101095.84;5072814;28;20024;-64
2022/04/15 03:27:34;;;;;;;6.00;5.70;;;;;;;2.84;90.59;101091.53;5069333;28;20444;-64
2022/04/15 03:30:00;;;;;;;5.93;5.63;;;;;;;2.81;89.54;101076.06;5061146;28;20074;-63
2022/04/15 03:32:26;;;;;;;5.40;5.20;;;;;;;3.02;88.46;101099.88;5055446;28;20091;-64
2022/04/15 03:34:56;;;;;;;5.63;5.43;;;;;;;2.99;86.98;101098.28;5070708;28;20028;-64
2022/04/15 03:37:22;;;;;;;6.32;6.03;;;;;;;3.11;86.02;101093.94;5051032;28;20093;-64
2022/04/15 03:39:47;;;;;;;6.00;5.70;;;;;;;3.23;85.21;101097.44;5052813;28;20490;-64
2022/04/15 03:42:13;;;;;;;6.45;6.15;;;;;;;3.16;85.39;101096.22;5045990;28;20044;-64
2022/04/15 03:44:38;;;;;;;6.18;5.88;;;;;;;3.41;85.22;101110.97;5058254;28;20027;-63
2022/04/15 03:47:06;;;;;;;5.88;5.57;;;;;;;3.71;83.02;101113.09;5054936;28;20396;-64
2022/04/15 03:49:32;;;;;;;6.20;5.90;;;;;;;4.02;81.23;101107.16;5064191;28;20025;-64
2022/04/15 03:51:59;;;;;;;6.55;6.25;;;;;;;4.22;79.69;101097.75;5051620;28;20031;-63
2022/04/15 03:54:24;;;;;;;5.90;5.60;;;;;;;4.59;78.33;101108.00;5059869;28;20491;-63
2022/04/15 03:56:50;;;;;;;5.60;5.40;;;;;;;4.95;75.95;101097.16;5052027;28;20045;-64
2022/04/15 03:59:15;;;;;;;6.50;6.20;;;;;;;5.27;74.95;101098.94;5065640;28;20420;-63
2022/04/15 04:01:42;;;;;;;5.70;5.50;;;;;;;5.74;72.82;101108.16;5053344;28;20033;-65
2022/04/15 04:04:07;;;;;;;5.47;5.28;;;;;;;6.27;70.63;101102.75;5049021;28;20097;-64
2022/04/15 04:06:33;;;;;;;5.82;5.60;;;;;;;6.80;67.81;101096.38;5064740;28;20111;-64
2022/04/15 04:08:58;;;;;;;5.60;5.40;;;;;;;7.75;63.87;101109.72;5039198;28;20491;-64
2022/04/15 04:11:24;;;;;;;5.88;5.68;;;;;;;8.04;61.64;101097.25;5031828;28;20018;-64
2022/04/15 04:13:49;;;;;;;6.57;6.28;;;;;;;9.31;57.96;101102.69;5032378;28;20028;-64
2022/04/15 04:16:17;;;;;;;8.15;7.75;;;;;;;9.79;54.19;101109.34;5066347;28;20669;-64
2022/04/15 04:18:43;;;;;;;6.45;6.15;;;;;;;9.73;55.09;101107.31;5048363;28;20060;-65
2022/04/15 04:21:09;;;;;;;6.50;6.20;;;;;;;10.47;52.47;101110.25;5051963;28;20021;-64
2022/04/15 04:23:35;;;;;;;6.93;6.63;;;;;;;11.22;50.74;101104.94;5031469;28;20025;-65
2022/04/15 04:26:02;;;;;;;6.13;5.88;;;;;;;12.08;48.51;101112.41;5031545;28;20068;-64
2022/04/15 04:28:27;;;;;;;6.10;5.90;;;;;;;12.59;47.70;101110.22;5036770;28;20033;-64
2022/04/15 04:30:53;;;;;;;6.85;6.55;;;;;;;13.13;46.08;101104.09;5031805;28;20021;-65
2022/04/15 04:33:19;;;;;;;6.57;6.28;;;;;;;13.30;45.37;101113.66;5051843;28;20028;-65
2022/04/15 04:35:44;;;;;;;7.03;6.72;;;;;;;13.42;45.69;101114.88;5057307;28;20427;-66
2022/04/15 04:38:10;;;;;;;7.00;6.70;;;;;;;14.59;42.25;101121.38;5048976;28;20039;-64
2022/04/15 04:40:36;;;;;;;6.60;6.30;;;;;;;13.94;42.98;101107.91;5054813;28;20408;-65
2022/04/15 04:43:02;;;;;;;6.90;6.60;;;;;;;15.01;41.07;101119.00;5053905;28;20028;-66
2022/04/15 04:45:29;;;;;;;7.03;6.72;;;;;;;14.99;40.79;101113.03;5071276;28;20555;-66
2022/04/15 04:47:56;;;;;;;6.97;6.68;;;;;;;16.17;39.37;101112.38;5055656;28;20029;-65
2022/04/15 04:50:21;;;;;;;7.22;6.93;;;;;;;16.78;37.25;101116.00;5051255;28;20033;-65
2022/04/15 04:52:48;;;;;;;7.00;6.70;;;;;;;16.93;36.71;101118.50;5057111;28;20035;-65
2022/04/15 04:55:14;;;;;;;7.05;6.75;;;;;;;17.10;36.34;101122.47;5051054;28;20029;-65
2022/04/15 04:57:42;;;;;;;7.00;6.70;;;;;;;18.20;35.29;101121.03;5059178;28;20037;-66
2022/04/15 05:00:09;;;;;;;7.20;6.90;;;;;;;19.91;32.47;101125.69;5056599;28;20032;-66
2022/04/15 05:02:34;;;;;;;7.20;6.90;;;;;;;20.72;30.59;101123.81;5054279;28;20048;-66
2022/04/15 05:05:00;;;;;;;7.10;6.80;;;;;;;20.63;30.33;101125.97;5057721;28;20052;-66
2022/04/15 05:07:26;;;;;;;6.90;6.60;;;;;;;19.52;31.14;101126.81;5064221;28;20036;-66
2022/04/15 05:09:52;;;;;;;7.00;6.70;;;;;;;19.95;30.65;101126.88;5058945;28;20029;-65
2022/04/15 05:12:17;;;;;;;7.00;6.70;;;;;;;20.51;30.38;101125.09;5055465;28;20025;-66
2022/04/15 05:14:43;;;;;;;6.90;6.60;;;;;;;20.05;30.88;101126.38;5044698;28;20046;-69
2022/04/15 05:17:09;;;;;;;6.97;6.68;;;;;;;20.54;29.97;101122.75;5061325;28;20032;-66
2022/04/15 05:19:34;;;;;;;7.10;6.80;;;;;;;20.90;29.33;101124.56;5061360;28;20471;-66
2022/04/15 05:22:00;;;;;;;7.10;6.80;;;;;;;20.65;29.38;101127.41;5054428;28;20028;-67
2022/04/15 05:24:25;;;;;;;7.30;7.00;;;;;;;22.13;28.58;101122.25;5046090;28;20128;-67
2022/04/15 05:26:51;;;;;;;7.10;6.80;;;;;;;21.08;28.76;101129.13;5060176;28;20033;-67
2022/04/15 05:29:16;;;;;;;6.82;6.53;;;;;;;21.47;28.64;101126.91;5056562;28;20036;-67
2022/04/15 05:31:42;;;;;;;6.82;6.53;;;;;;;22.01;27.79;101125.75;5068849;28;20155;-66
2022/04/15 05:34:08;;;;;;;7.00;6.70;;;;;;;21.90;27.31;101129.28;5060637;28;20029;-67
2022/04/15 05:36:34;;;;;;;7.18;6.88;;;;;;;20.69;29.36;101127.75;5061235;28;20496;-67
2022/04/15 05:39:00;;;;;;;7.15;6.85;;;;;;;20.91;28.53;101123.53;5054147;28;20032;-67
2022/04/15 05:41:26;;;;;;;7.03;6.72;;;;;;;22.34;26.89;101122.47;5070636;28;20042;-66
2022/04/15 05:43:51;;;;;;;7.28;6.97;;;;;;;22.34;27.19;101119.75;5053675;28;20115;-67
2022/04/15 05:46:16;;;;;;;7.30;7.00;;;;;;;23.15;26.55;101123.28;5060669;28;20024;-67
2022/04/15 05:48:42;;;;;;;7.30;7.00;;;;;;;23.11;25.59;101127.50;5057629;28;20028;-68
2022/04/15 05:51:08;;;;;;;7.28;6.97;;;;;;;23.46;25.58;101120.25;5050475;28;20028;-67
2022/04/15 05:53:33;;;;;;;7.15;6.85;;;;;;;23.17;25.40;101123.03;5062866;28;20048;-70
2022/04/15 05:55:59;;;;;;;7.00;6.70;;;;;;;23.35;25.72;101117.38;5046621;28;20496;-65
2022/04/15 05:58:25;;;;;;;7.28;6.97;;;;;;;23.46;25.38;101121.09;5057542;28;20031;-63
2022/04/15 06:00:51;;;;;;;7.40;7.10;;;;;;;23.53;25.63;101116.31;5051610;28;20017;-66
2022/04/15 06:03:17;;;;;;;6.93;6.63;;;;;;;23.44;25.72;101113.22;5053502;28;20062;-63
2022/04/15 06:05:43;;;;;;;7.35;7.05;;;;;;;24.93;24.06;101108.75;5058538;28;20035;-63
2022/04/15 06:08:08;;;;;;;7.13;6.82;;;;;;;24.34;24.19;101114.03;5068582;28;20028;-64
2022/04/15 06:10:34;;;;;;;7.13;6.82;;;;;;;25.01;24.06;101111.00;5045496;28;20041;-65
2022/04/15 06:13:46;;;;;;;7.32;7.03;;;;;;;24.53;24.43;101106.38;5056396;28;20024;-63
2022/04/15 06:15:53;;;;;;;7.40;7.10;;;;;;;24.05;25.06;101094.38;5033537;28;20045;-64
2022/04/15 06:18:20;;;;;;;7.30;7.00;;;;;;;23.64;25.28;101092.94;5046120;28;20033;-65
2022/04/15 06:20:47;;;;;;;7.13;6.82;;;;;;;24.32;24.56;101099.88;5058159;28;20030;-65
2022/04/15 06:23:13;;;;;;;7.10;6.80;;;;;;;24.17;25.16;101086.94;5051134;28;20386;-65
2022/04/15 06:25:39;;;;;;;7.38;7.07;;;;;;;23.36;25.91;101089.25;5051212;28;20031;-64
2022/04/15 06:28:05;;;;;;;7.28;6.97;;;;;;;23.79;25.86;101076.91;5055087;28;20024;-64
2022/04/15 06:30:30;;;;;;;7.15;6.85;;;;;;;24.59;24.71;101085.56;5051896;28;20109;-64
2022/04/15 06:32:56;;;;;;;7.50;7.20;;;;;;;23.97;24.40;101076.66;5055866;28;20034;-65
2022/04/15 06:35:22;;;;;;;7.40;7.10;;;;;;;23.78;25.33;101082.59;5046873;28;20028;-66
2022/04/15 06:37:47;;;;;;;7.30;7.00;;;;;;;24.30;24.96;101087.63;5057658;28;20411;-65
2022/04/15 06:40:14;;;;;;;7.15;6.85;;;;;;;24.45;24.58;101090.56;5058493;28;20040;-65
2022/04/15 06:42:40;;;;;;;7.20;6.90;;;;;;;25.17;23.56;101086.72;5056257;28;20025;-64
2022/04/15 06:45:06;;;;;;;7.25;6.95;;;;;;;26.26;22.62;101085.31;5049744;28;20036;-64
2022/04/15 06:47:31;;;;;;;7.10;6.80;;;;;;;24.65;24.52;101087.28;5053284;28;20555;-65
2022/04/15 06:49:57;;;;;;;7.60;7.30;;;;;;;24.37;24.78;101080.97;5052466;28;20122;-65
2022/04/15 06:52:22;;;;;;;7.10;6.80;;;;;;;21.46;28.52;101084.78;5048103;28;20021;-65
2022/04/15 06:54:48;;;;;;;7.03;6.72;;;;;;;24.05;26.01;101080.00;5042984;28;20025;-64
2022/04/15 06:57:13;;;;;;;7.20;6.90;;;;;;;22.80;27.34;101076.59;5053987;28;20087;-65
2022/04/15 06:59:41;;;;;;;7.25;6.95;;;;;;;25.45;23.61;101075.56;5048342;28;20082;-66
2022/04/15 07:02:06;;;;;;;7.40;7.10;;;;;;;26.01;23.13;101078.69;5049009;28;20028;-67
2022/04/15 07:04:33;;;;;;;7.30;7.00;;;;;;;26.29;23.44;101082.06;5062891;28;20017;-66
2022/04/15 07:06:58;;;;;;;7.30;7.00;;;;;;;23.24;26.82;101074.13;5043365;28;20052;-67
2022/04/15 07:09:24;;;;;;;7.40;7.10;;;;;;;26.37;23.09;101068.78;5052128;28;20025;-66
2022/04/15 07:11:51;;;;;;;7.30;7.00;;;;;;;23.43;26.29;101064.72;5047985;28;20888;-64
2022/04/15 07:14:17;;;;;;;7.15;6.85;;;;;;;25.20;23.95;101072.66;5052450;28;20044;-63
2022/04/15 07:16:43;;;;;;;7.15;6.85;;;;;;;25.45;23.98;101067.41;5055320;28;20103;-64
2022/04/15 07:19:08;;;;;;;7.22;6.93;;;;;;;22.23;27.59;101060.31;5051622;28;20094;-64
2022/04/15 07:21:35;;;;;;;7.30;7.00;;;;;;;25.44;23.75;101062.25;5058977;28;20029;-64
2022/04/15 07:24:01;;;;;;;7.00;6.70;;;;;;;25.47;23.43;101061.72;5055665;28;20029;-64
2022/04/15 07:26:26;;;;;;;7.10;6.80;;;;;;;27.89;21.21;101070.00;5053360;28;20093;-65
2022/04/15 07:28:52;;;;;;;7.10;6.80;;;;;;;27.58;20.93;101068.41;5061148;28;20104;-64
2022/04/15 07:31:17;;;;;;;7.10;6.80;;;;;;;26.25;22.85;101054.59;5051630;28;20025;-65
2022/04/15 07:33:46;;;;;;;7.10;6.80;;;;;;;25.96;22.56;101048.75;5062304;28;20101;-65
2022/04/15 07:38:56;;;;;;;7.20;6.90;;;;;;;28.06;21.34;101047.88;5047652;28;20048;-64
2022/04/15 07:41:21;;;;;;;7.20;6.90;;;;;;;27.44;21.14;101054.53;5048217;28;20029;-64
2022/04/15 07:43:48;;;;;;;7.30;7.00;;;;;;;24.18;23.78;101047.94;5040604;28;20037;-65
2022/04/15 07:46:14;;;;;;;7.43;7.13;;;;;;;26.59;22.19;101051.47;5039301;28;20049;-65
2022/04/15 07:48:40;;;;;;;7.30;7.00;;;;;;;28.95;19.90;101047.97;5041107;28;20021;-65
2022/04/15 07:51:05;;;;;;;7.03;6.72;;;;;;;25.60;23.09;101040.34;5057253;28;20023;-65
2022/04/15 07:53:30;;;;;;;7.25;6.95;;;;;;;27.17;21.14;101024.84;5057318;28;20033;-64
2022/04/15 07:55:56;;;;;;;7.20;6.90;;;;;;;26.73;20.35;101041.66;5058638;28;20093;-65
2022/04/15 07:58:21;;;;;;;7.40;7.10;;;;;;;26.71;20.52;101036.50;5055074;28;20780;-64
2022/04/15 08:00:47;;;;;;;7.28;6.97;;;;;;;26.88;20.35;101035.44;5049596;28;20070;-66
2022/04/15 08:03:12;;;;;;;7.32;7.03;;;;;;;24.75;21.49;101033.09;5054762;28;20388;-65
2022/04/15 08:05:38;;;;;;;7.30;7.00;;;;;;;25.33;21.84;101017.88;5054039;28;20396;-65
2022/04/15 08:08:04;;;;;;;7.20;6.90;;;;;;;26.05;20.80;101017.25;5054235;28;20040;-65
2022/04/15 08:10:29;;;;;;;7.15;6.85;;;;;;;25.49;21.82;101016.94;5069123;28;20091;-66
2022/04/15 08:12:55;;;;;;;7.28;6.97;;;;;;;26.74;20.65;101023.47;5045143;28;20081;-65
2022/04/15 08:15:21;;;;;;;7.35;7.05;;;;;;;26.70;19.56;101015.81;5066669;28;20551;-65
2022/04/15 08:17:47;;;;;;;7.30;7.00;;;;;;;25.75;20.22;101009.75;5060713;28;20051;-64
2022/04/15 08:20:14;;;;;;;7.43;7.13;;;;;;;26.57;21.20;101012.78;5053049;28;20497;-64
2022/04/15 08:22:40;;;;;;;7.28;6.97;;;;;;;24.91;22.26;100993.38;5061914;28;20039;-64
2022/04/15 08:25:06;;;;;;;7.30;7.00;;;;;;;25.62;22.30;100996.59;5056484;28;20039;-64
2022/04/15 08:27:32;;;;;;;7.20;6.90;;;;;;;23.59;23.72;100985.34;5045741;28;20112;-67
2022/04/15 08:29:58;;;;;;;7.57;7.28;;;;;;;23.42;24.43;100985.34;5056184;28;20973;-66
2022/04/15 08:32:23;;;;;;;7.30;7.00;;;;;;;23.85;23.46;100983.81;5052522;28;20037;-65
2022/04/15 08:34:48;;;;;;;7.57;7.28;;;;;;;25.12;22.38;100976.22;5044247;28;20041;-65
2022/04/15 08:37:14;;;;;;;7.50;7.20;;;;;;;25.10;21.78;100972.09;5049117;28;20034;-67
2022/04/15 08:39:40;;;;;;;7.40;7.10;;;;;;;23.74;23.05;100964.97;5054533;28;20332;-67
2022/04/15 08:42:09;;;;;;;8.38;7.97;;;;;;;23.24;23.01;100961.28;5058034;28;20698;-64
2022/04/15 08:44:34;;;;;;;7.00;6.70;;;;;;;22.82;23.79;100950.00;5044248;28;20508;-65
2022/04/15 08:47:02;;;;;;;7.68;7.38;;;;;;;22.80;23.28;100952.97;5037217;28;20029;-65
2022/04/15 08:49:28;;;;;;;7.78;7.47;;;;;;;22.91;23.08;100947.75;5041428;28;20111;-66
2022/04/15 08:51:54;;;;;;;7.80;7.50;;;;;;;24.50;21.37;100944.97;5040833;28;20024;-65
2022/04/15 08:54:20;;;;;;;7.45;7.15;;;;;;;22.61;23.26;100951.53;5038208;28;20527;-66
2022/04/15 08:56:45;;;;;;;7.50;7.20;;;;;;;24.11;22.04;100952.41;5057586;28;20156;-65
2022/04/15 08:59:11;;;;;;;7.53;7.22;;;;;;;25.35;20.69;100945.13;5048061;28;20037;-66
2022/04/15 09:01:37;;;;;;;7.55;7.25;;;;;;;25.97;20.06;100949.78;5052163;28;20387;-66
2022/04/15 09:04:03;;;;;;;7.00;6.70;;;;;;;25.25;21.24;100931.47;5038174;28;20388;-66
2022/04/15 09:06:31;;;;;;;7.50;7.20;;;;;;;24.15;22.05;100934.56;5058419;28;20038;-66
2022/04/15 09:09:08;;;;;;;7.28;6.97;;;;;;;25.43;20.41;100930.25;5049938;28;20059;-66
2022/04/15 09:11:38;;;;;;;7.63;7.32;;;;;;;25.29;20.29;100927.97;5036516;28;20029;-63
2022/04/15 09:14:10;;;;;;;7.32;7.03;;;;;;;24.60;21.43;100921.72;5043626;28;20075;-64
2022/04/15 09:16:41;;;;;;;7.78;7.47;;;;;;;23.74;22.25;100911.63;5049680;28;20029;-65
2022/04/15 09:19:08;;;;;;;8.05;7.70;;;;;;;25.32;20.41;100913.88;5043088;28;20036;-64
2022/04/15 09:21:34;;;;;;;7.18;6.88;;;;;;;22.77;23.25;100914.78;5052176;28;20029;-64
2022/04/15 09:23:59;;;;;;;7.50;7.20;;;;;;;23.80;21.95;100907.91;5055237;28;20028;-64
2022/04/15 09:26:26;;;;;;;7.22;6.93;;;;;;;23.56;21.48;100909.16;5058519;28;20048;-64
2022/04/15 09:28:55;;;;;;;7.30;7.00;;;;;;;22.96;21.43;100910.78;5064229;28;20032;-63
2022/04/15 09:31:23;;;;;;;7.40;7.10;;;;;;;24.37;20.21;100906.59;5051482;28;20028;-65
2022/04/15 09:34:01;;;;;;;7.50;7.20;;;;;;;24.66;19.81;100909.84;5049177;28;20025;-65
2022/04/15 09:36:38;;;;;;;7.22;6.93;;;;;;;23.50;20.58;100894.75;5060980;28;20028;-65
2022/04/15 09:39:04;;;;;;;7.07;6.78;;;;;;;24.06;20.59;100897.31;5048283;28;20118;-64
2022/04/15 09:41:30;;;;;;;7.07;6.78;;;;;;;23.01;21.47;100893.81;5044779;28;20048;-64
2022/04/15 09:43:59;;;;;;;7.00;6.70;;;;;;;22.84;22.00;100888.34;5046476;28;20028;-65
2022/04/15 09:46:27;;;;;;;7.05;6.75;;;;;;;23.62;21.12;100887.34;5067940;28;20032;-65
2022/04/15 09:49:06;;;;;;;7.22;6.93;;;;;;;23.70;21.59;100884.19;5063049;28;20028;-63
2022/04/15 09:51:34;;;;;;;6.90;6.60;;;;;;;23.77;21.64;100883.19;5051743;28;20055;-63
2022/04/15 09:54:01;;;;;;;6.95;6.65;;;;;;;23.80;21.32;100885.41;5062594;28;20104;-64
2022/04/15 09:56:31;;;;;;;7.32;7.03;;;;;;;24.07;21.32;100875.38;5067279;28;20060;-65
2022/04/15 09:59:02;;;;;;;6.53;6.22;;;;;;;23.27;22.35;100851.66;5056686;28;20032;-65
2022/04/15 10:01:30;;;;;;;7.07;6.78;;;;;;;22.42;23.09;100852.81;5051817;28;20035;-64
2022/04/15 10:03:56;;;;;;;7.32;7.03;;;;;;;23.09;22.47;100866.31;5070089;28;20020;-64
2022/04/15 10:06:23;;;;;;;7.00;6.70;;;;;;;22.72;23.57;100861.41;5060031;28;20025;-64
2022/04/15 10:08:49;;;;;;;6.90;6.60;;;;;;;22.17;23.47;100855.88;5065748;28;20085;-64
2022/04/15 10:11:15;;;;;;;7.13;6.82;;;;;;;22.18;23.23;100861.06;5047493;28;20524;-64
2022/04/15 10:13:44;;;;;;;7.13;6.82;;;;;;;21.44;24.18;100852.03;5050078;28;20128;-64
2022/04/15 10:16:10;;;;;;;7.00;6.70;;;;;;;22.00;22.79;100845.03;5039990;28;20051;-64
2022/04/15 10:18:36;;;;;;;6.93;6.63;;;;;;;22.20;23.17;100837.31;5049732;28;20464;-63
2022/04/15 10:21:03;;;;;;;7.15;6.85;;;;;;;21.89;22.83;100830.53;5052116;28;20376;-64
2022/04/15 10:23:30;;;;;;;7.18;6.88;;;;;;;21.72;23.56;100840.44;5064865;28;20404;-64
2022/04/15 10:25:59;;;;;;;7.13;6.82;;;;;;;20.72;24.00;100813.75;5046374;28;20484;-64
2022/04/15 10:28:41;;;;;;;7.45;7.15;;;;;;;21.32;23.64;100821.56;5051175;28;20039;-64
2022/04/15 10:31:17;;;;;;;7.10;6.80;;;;;;;21.49;23.94;100820.56;5051548;28;20051;-64
2022/04/15 10:33:49;;;;;;;7.30;7.00;;;;;;;21.73;23.07;100820.47;5081263;28;20032;-66
2022/04/15 10:36:22;;;;;;;6.70;6.40;;;;;;;21.67;23.42;100807.97;5048158;28;20039;-66
2022/04/15 10:39:03;;;;;;;7.60;7.30;;;;;;;21.64;23.10;100798.44;5057329;28;20024;-65
2022/04/15 10:41:50;;;;;;;7.05;6.75;;;;;;;21.73;22.45;100804.28;5065993;28;20024;-65
2022/04/15 10:44:28;;;;;;;7.35;7.05;;;;;;;21.31;22.81;100806.44;5049782;28;20424;-66
2022/04/15 10:46:58;;;;;;;7.13;6.82;;;;;;;21.43;22.71;100797.22;5057175;28;20025;-66
2022/04/15 10:49:29;;;;;;;7.82;7.53;;;;;;;21.83;23.29;100792.88;5047832;28;20387;-65
2022/04/15 10:52:01;;;;;;;7.30;7.00;;;;;;;21.52;23.74;100795.81;5068339;28;20041;-66
2022/04/15 10:54:36;;;;;;;7.47;7.18;;;;;;;21.49;24.74;100790.88;5060391;28;20051;-66
2022/04/15 10:57:08;;;;;;;7.35;7.05;;;;;;;21.74;24.69;100779.75;5053521;28;20612;-65
2022/04/15 11:02:21;;;;;;;7.28;6.97;;;;;;;22.00;24.23;100769.38;5053301;28;20032;-65
2022/04/15 11:04:51;;;;;;;7.63;7.32;;;;;;;21.64;24.48;100779.53;5054330;28;20518;-65
2022/04/15 11:07:28;;;;;;;7.28;6.97;;;;;;;21.37;24.24;100781.16;5047829;28;20028;-66
2022/04/15 11:09:55;;;;;;;7.45;7.15;;;;;;;21.55;24.02;100764.81;5057024;28;20029;-65
2022/04/15 11:12:35;;;;;;;7.00;6.70;;;;;;;21.92;24.07;100759.81;5064217;28;20050;-66
2022/04/15 11:15:02;;;;;;;7.18;6.88;;;;;;;21.71;24.33;100750.53;5051456;28;20037;-66
2022/04/15 11:17:44;;;;;;;7.60;7.30;;;;;;;21.76;23.82;100745.22;5055819;28;20554;-66
2022/04/15 11:20:10;;;;;;;7.72;7.43;;;;;;;21.48;24.11;100740.66;5063827;28;20028;-66
2022/04/15 11:22:43;;;;;;;7.28;6.97;;;;;;;22.11;24.44;100746.91;5051318;28;20032;-66
2022/04/15 11:25:10;;;;;;;6.90;6.60;;;;;;;22.16;23.53;100744.28;5058215;28;20043;-65
2022/04/15 11:27:39;;;;;;;7.15;6.85;;;;;;;21.89;23.32;100745.97;5061052;28;20028;-66
2022/04/15 11:30:11;;;;;;;7.40;7.10;;;;;;;21.94;23.52;100743.34;5056354;28;20054;-65
2022/04/15 11:32:46;;;;;;;6.90;6.60;;;;;;;21.85;24.25;100750.22;5061769;28;20028;-66
2022/04/15 11:35:24;;;;;;;7.18;6.88;;;;;;;22.15;24.04;100725.63;5056506;28;20107;-66